createdAt,value
2018-03-12T00:01:12.212Z,9.20
2018-03-12T00:03:39.789Z,9.20
2018-03-12T00:06:07.360Z,9.20
2018-03-12T00:08:34.899Z,9.20
2018-03-12T00:11:02.492Z,9.20
2018-03-12T00:13:30.032Z,9.20
2018-03-12T00:15:57.560Z,9.20
2018-03-12T00:18:25.945Z,9.20
2018-03-12T00:20:54.357Z,9.10
2018-03-12T00:23:21.932Z,9.10
2018-03-12T00:25:49.471Z,9.20
2018-03-12T00:28:17.009Z,9.10
2018-03-12T00:30:44.590Z,9.10
2018-03-12T00:33:12.165Z,9.10
2018-03-12T00:35:39.720Z,9.10
2018-03-12T00:38:07.303Z,9.10
2018-03-12T00:40:34.876Z,9.10
2018-03-12T00:43:02.417Z,9.10
2018-03-12T00:45:29.995Z,9.10
2018-03-12T00:47:57.534Z,9.10
2018-03-12T00:50:25.117Z,9.10
2018-03-12T00:52:52.661Z,9.10
2018-03-12T00:55:20.196Z,9.00
2018-03-12T00:57:47.788Z,9.00
2018-03-12T01:00:15.327Z,9.00
2018-03-12T01:02:42.887Z,9.00
2018-03-12T01:05:10.470Z,9.00
2018-03-12T01:07:38.010Z,9.00
2018-03-12T01:10:05.585Z,9.00
2018-03-12T01:12:33.188Z,9.00
2018-03-12T01:15:00.749Z,9.00
2018-03-12T01:17:28.325Z,9.00
2018-03-12T01:19:55.865Z,9.00
2018-03-12T01:22:23.441Z,9.00
2018-03-12T01:24:51.025Z,9.00
2018-03-12T01:27:18.558Z,8.90
2018-03-12T01:29:46.133Z,9.00
2018-03-12T01:32:13.673Z,8.90
2018-03-12T01:34:41.244Z,8.90
2018-03-12T01:37:08.776Z,8.90
2018-03-12T01:39:37.108Z,8.90
2018-03-12T01:42:04.688Z,8.90
2018-03-12T01:44:33.731Z,8.90
2018-03-12T01:47:01.307Z,8.90
2018-03-12T01:49:28.850Z,8.90
2018-03-12T01:51:56.538Z,8.90
2018-03-12T01:54:24.078Z,8.90
2018-03-12T01:56:51.610Z,8.90
2018-03-12T01:59:19.961Z,8.80
2018-03-12T02:01:48.289Z,8.90
2018-03-12T02:04:15.863Z,8.80
2018-03-12T02:06:43.400Z,8.80
2018-03-12T02:09:10.979Z,8.80
2018-03-12T02:11:38.551Z,8.80
2018-03-12T02:14:06.123Z,8.80
2018-03-12T02:16:33.705Z,8.80
2018-03-12T02:19:01.269Z,8.80
2018-03-12T02:21:28.812Z,8.80
2018-03-12T02:23:56.388Z,8.80
2018-03-12T02:26:23.952Z,8.80
2018-03-12T02:28:51.523Z,8.80
2018-03-12T02:31:19.826Z,8.80
2018-03-12T02:33:47.407Z,8.80
2018-03-12T02:36:14.944Z,8.80
2018-03-12T02:38:42.536Z,8.80
2018-03-12T02:41:10.080Z,8.80
2018-03-12T02:43:37.629Z,8.70
2018-03-12T02:46:05.216Z,8.70
2018-03-12T02:48:32.805Z,8.70
2018-03-12T02:51:01.106Z,8.70
2018-03-12T02:53:28.650Z,8.70
2018-03-12T02:55:57.005Z,8.70
2018-03-12T02:58:24.553Z,8.70
2018-03-12T03:00:52.094Z,8.70
2018-03-12T03:03:19.687Z,8.70
2018-03-12T03:05:47.233Z,8.70
2018-03-12T03:08:14.782Z,8.70
2018-03-12T03:10:42.361Z,8.70
2018-03-12T03:13:09.895Z,8.70
2018-03-12T03:15:37.468Z,8.70
2018-03-12T03:18:05.016Z,8.60
2018-03-12T03:20:32.607Z,8.60
2018-03-12T03:23:00.145Z,8.70
2018-03-12T03:25:27.691Z,8.70
2018-03-12T03:27:55.273Z,8.60
2018-03-12T03:30:28.452Z,8.60
2018-03-12T03:32:56.028Z,8.60
2018-03-12T03:35:23.569Z,8.60
2018-03-12T03:37:51.150Z,8.60
2018-03-12T03:40:18.726Z,8.60
2018-03-12T03:42:46.271Z,8.60
2018-03-12T03:45:13.850Z,8.60
2018-03-12T03:47:41.436Z,8.60
2018-03-12T03:50:08.978Z,8.60
2018-03-12T03:52:37.283Z,8.60
2018-03-12T03:55:04.854Z,8.60
2018-03-12T03:57:32.403Z,8.60
2018-03-12T03:59:59.989Z,8.60
2018-03-12T04:02:27.528Z,8.60
2018-03-12T04:04:55.072Z,8.60
2018-03-12T04:07:22.653Z,8.60
2018-03-12T04:09:50.244Z,8.50
2018-03-12T04:12:17.779Z,8.60
2018-03-12T04:14:45.317Z,8.60
2018-03-12T04:17:12.899Z,8.50
2018-03-12T04:19:40.477Z,8.60
2018-03-12T04:22:08.013Z,8.50
2018-03-12T04:24:35.597Z,8.50
2018-03-12T04:27:03.177Z,8.50
2018-03-12T04:29:32.219Z,8.50
2018-03-12T04:31:59.810Z,8.50
2018-03-12T04:34:27.566Z,8.50
2018-03-12T04:36:55.120Z,8.50
2018-03-12T04:39:22.691Z,8.50
2018-03-12T04:41:50.228Z,8.50
2018-03-12T04:44:17.796Z,8.50
2018-03-12T04:46:45.334Z,8.50
2018-03-12T04:49:12.911Z,8.50
2018-03-12T04:51:40.480Z,8.50
2018-03-12T04:54:08.011Z,8.50
2018-03-12T04:56:35.576Z,8.50
2018-03-12T04:59:03.111Z,8.50
2018-03-12T05:01:31.449Z,8.50
2018-03-12T05:03:58.997Z,8.40
2018-03-12T05:06:26.569Z,8.40
2018-03-12T05:08:54.099Z,8.40
2018-03-12T05:11:21.664Z,8.40
2018-03-12T05:13:49.191Z,8.40
2018-03-12T05:16:17.527Z,8.40
2018-03-12T05:18:45.106Z,8.40
2018-03-12T05:21:12.643Z,8.40
2018-03-12T05:23:40.187Z,8.40
2018-03-12T05:26:07.762Z,8.40
2018-03-12T05:28:35.312Z,8.40
2018-03-12T05:31:02.881Z,8.40
2018-03-12T05:33:30.416Z,8.40
2018-03-12T05:35:57.989Z,8.40
2018-03-12T05:38:25.523Z,8.40
2018-03-12T05:40:53.111Z,8.30
2018-03-12T05:43:20.647Z,8.40
2018-03-12T05:45:48.342Z,8.40
2018-03-12T05:48:15.918Z,8.40
2018-03-12T05:50:43.466Z,8.30
2018-03-12T05:53:11.003Z,8.30
2018-03-12T05:55:38.586Z,8.30
2018-03-12T05:58:06.148Z,8.30
2018-03-12T06:00:33.728Z,8.30
2018-03-12T06:03:01.294Z,8.30
2018-03-12T06:05:28.880Z,8.30
2018-03-12T06:07:56.422Z,8.30
2018-03-12T06:10:24.764Z,8.30
2018-03-12T06:12:52.329Z,8.30
2018-03-12T06:15:19.901Z,8.30
2018-03-12T06:17:47.429Z,8.30
2018-03-12T06:20:15.001Z,8.30
2018-03-12T06:22:42.547Z,8.30
2018-03-12T06:25:10.128Z,8.30
2018-03-12T06:27:37.668Z,8.30
2018-03-12T06:30:05.243Z,8.30
2018-03-12T06:32:32.780Z,8.30
2018-03-12T06:35:00.359Z,8.30
2018-03-12T06:37:27.923Z,8.30
2018-03-12T06:39:55.448Z,8.30
2018-03-12T06:42:23.029Z,8.30
2018-03-12T06:44:50.568Z,8.30
2018-03-12T06:47:18.094Z,8.30
2018-03-12T06:49:45.661Z,8.30
2018-03-12T06:52:13.959Z,8.30
2018-03-12T06:54:41.630Z,8.30
2018-03-12T06:57:09.213Z,8.30
2018-03-12T06:59:36.776Z,8.30
2018-03-12T07:02:04.325Z,8.20
2018-03-12T07:04:31.900Z,8.20
2018-03-12T07:06:59.432Z,8.20
2018-03-12T07:09:27.018Z,8.20
2018-03-12T07:11:54.558Z,8.30
2018-03-12T07:14:22.093Z,8.20
2018-03-12T07:16:49.659Z,8.30
2018-03-12T07:19:17.209Z,8.20
2018-03-12T07:21:44.792Z,8.20
2018-03-12T07:24:12.327Z,8.20
2018-03-12T07:26:40.666Z,8.20
2018-03-12T07:29:08.212Z,8.20
2018-03-12T07:31:35.775Z,8.20
2018-03-12T07:34:03.337Z,8.30
2018-03-12T07:36:30.876Z,8.20
2018-03-12T07:38:58.451Z,8.30
2018-03-12T07:41:25.987Z,8.20
2018-03-12T07:43:53.561Z,8.20
2018-03-12T07:46:21.100Z,8.20
2018-03-12T07:48:48.691Z,8.20
2018-03-12T07:51:16.253Z,8.30
2018-03-12T07:53:43.794Z,8.20
2018-03-12T07:56:11.355Z,8.20
2018-03-12T07:58:38.887Z,8.20
2018-03-12T08:01:06.482Z,8.30
2018-03-12T08:03:34.013Z,8.30
2018-03-12T08:06:01.576Z,8.30
2018-03-12T08:08:29.909Z,8.30
2018-03-12T08:10:57.476Z,8.30
2018-03-12T08:13:25.135Z,8.30
2018-03-12T08:15:52.706Z,8.30
2018-03-12T08:18:21.048Z,8.40
2018-03-12T08:20:48.572Z,8.40
2018-03-12T08:23:16.155Z,8.40
2018-03-12T08:25:43.760Z,8.50
2018-03-12T08:28:12.070Z,8.60
2018-03-12T08:30:39.654Z,8.50
2018-03-12T08:33:07.234Z,8.60
2018-03-12T08:35:34.773Z,8.70
2018-03-12T08:38:02.348Z,8.70
2018-03-12T08:40:29.927Z,8.90
2018-03-12T08:42:57.463Z,9.00
2018-03-12T08:45:25.050Z,9.00
2018-03-12T08:47:52.592Z,9.00
2018-03-12T08:50:20.180Z,9.00
2018-03-12T08:52:48.492Z,9.00
2018-03-12T08:55:16.072Z,9.00
2018-03-12T08:57:43.608Z,9.10
2018-03-12T09:00:11.190Z,9.10
2018-03-12T09:02:38.797Z,9.10
2018-03-12T09:05:06.344Z,9.20
2018-03-12T09:07:34.653Z,9.30
2018-03-12T09:10:02.996Z,9.40
2018-03-12T09:12:30.554Z,9.40
2018-03-12T09:14:58.257Z,9.50
2018-03-12T09:17:25.968Z,9.70
2018-03-12T09:19:53.730Z,9.80
2018-03-12T09:22:22.089Z,9.90
2018-03-12T09:24:49.902Z,9.90
2018-03-12T09:27:17.449Z,10.00
2018-03-12T09:29:45.045Z,10.00
2018-03-12T09:32:13.353Z,10.10
2018-03-12T09:34:40.935Z,10.10
2018-03-12T09:37:08.475Z,10.20
2018-03-12T09:39:36.061Z,10.20
2018-03-12T09:42:03.609Z,10.20
2018-03-12T09:44:31.196Z,10.10
2018-03-12T09:46:59.505Z,10.00
2018-03-12T09:49:27.798Z,10.00
2018-03-12T09:51:55.401Z,10.00
2018-03-12T09:54:22.932Z,10.00
2018-03-12T09:56:50.519Z,10.00
2018-03-12T09:59:18.064Z,10.00
2018-03-12T10:01:45.643Z,10.20
2018-03-12T10:04:13.184Z,10.30
2018-03-12T10:06:40.770Z,10.40
2018-03-12T10:09:09.075Z,10.60
2018-03-12T10:11:37.428Z,10.60
2018-03-12T10:14:04.976Z,10.60
2018-03-12T10:16:32.564Z,10.60
2018-03-12T10:19:00.990Z,10.80
2018-03-12T10:21:28.577Z,10.80
2018-03-12T10:23:56.118Z,10.70
2018-03-12T10:26:23.725Z,10.50
2018-03-12T10:28:52.028Z,10.40
2018-03-12T10:31:19.625Z,10.40
2018-03-12T10:33:47.172Z,10.40
2018-03-12T10:36:14.998Z,10.50
2018-03-12T10:38:43.311Z,11.10
2018-03-12T10:41:10.891Z,11.00
2018-03-12T10:43:38.500Z,11.10
2018-03-12T10:46:06.808Z,10.90
2018-03-12T10:48:34.368Z,10.90
2018-03-12T10:51:01.949Z,10.80
2018-03-12T10:53:29.526Z,10.70
2018-03-12T10:55:57.105Z,10.60
2018-03-12T10:58:25.407Z,10.70
2018-03-12T11:00:54.755Z,10.70
2018-03-12T11:03:39.065Z,10.70
2018-03-12T11:06:06.645Z,10.90
2018-03-12T11:08:34.224Z,10.80
2018-03-12T11:11:01.848Z,10.80
2018-03-12T11:13:29.390Z,10.80
2018-03-12T11:15:57.737Z,10.90
2018-03-12T11:18:26.795Z,11.10
2018-03-12T11:20:54.371Z,11.10
2018-03-12T11:23:21.915Z,11.40
2018-03-12T11:25:49.495Z,11.40
2018-03-12T11:28:17.040Z,11.20
2018-03-12T11:30:44.592Z,11.10
2018-03-12T11:33:12.177Z,10.90
2018-03-12T11:35:39.720Z,10.80
2018-03-12T11:38:07.296Z,10.80
2018-03-12T11:40:34.844Z,10.70
2018-03-12T11:43:02.420Z,10.70
2018-03-12T11:45:29.962Z,10.70
2018-03-12T11:47:57.547Z,10.70
2018-03-12T11:50:25.084Z,10.70
2018-03-12T11:52:52.622Z,10.70
2018-03-12T11:55:20.196Z,10.70
2018-03-12T11:57:47.741Z,10.70
2018-03-12T12:00:15.314Z,10.80
2018-03-12T12:02:42.906Z,10.80
2018-03-12T12:05:10.449Z,10.80
2018-03-12T12:07:38.021Z,10.80
2018-03-12T12:10:05.601Z,10.90
2018-03-12T12:12:33.141Z,11.00
2018-03-12T12:15:00.723Z,11.10
2018-03-12T12:17:28.268Z,11.20
2018-03-12T12:19:56.615Z,11.20
2018-03-12T12:22:24.194Z,11.20
2018-03-12T12:24:51.733Z,11.30
2018-03-12T12:27:19.316Z,11.30
2018-03-12T12:29:46.856Z,11.40
2018-03-12T12:32:14.423Z,11.50
2018-03-12T12:34:41.964Z,11.40
2018-03-12T12:37:09.547Z,11.30
2018-03-12T12:39:37.094Z,11.30
2018-03-12T12:42:04.682Z,11.20
2018-03-12T12:44:32.216Z,11.20
2018-03-12T12:46:59.804Z,11.20
2018-03-12T12:49:27.347Z,11.30
2018-03-12T12:51:54.942Z,11.30
2018-03-12T12:54:23.254Z,11.30
2018-03-12T12:56:50.836Z,11.30
2018-03-12T12:59:18.381Z,11.30
2018-03-12T13:01:45.962Z,11.40
2018-03-12T13:04:13.511Z,11.40
2018-03-12T13:06:41.090Z,11.50
2018-03-12T13:09:08.659Z,11.40
2018-03-12T13:11:36.244Z,11.50
2018-03-12T13:14:04.549Z,11.60
2018-03-12T13:16:32.130Z,11.60
2018-03-12T13:18:59.704Z,11.50
2018-03-12T13:21:27.244Z,11.50
2018-03-12T13:23:54.820Z,11.50
2018-03-12T13:26:22.370Z,11.50
2018-03-12T13:28:49.946Z,11.50
2018-03-12T13:31:17.543Z,11.60
2018-03-12T13:33:45.848Z,11.80
2018-03-12T13:36:13.426Z,11.80
2018-03-12T13:38:41.007Z,12.00
2018-03-12T13:41:08.552Z,12.00
2018-03-12T13:43:36.090Z,11.90
2018-03-12T13:46:03.662Z,11.80
2018-03-12T13:48:31.198Z,11.80
2018-03-12T13:50:58.781Z,11.80
2018-03-12T13:53:26.317Z,11.80
2018-03-12T13:55:54.668Z,11.90
2018-03-12T13:58:22.254Z,11.90
2018-03-12T14:00:51.457Z,11.90
2018-03-12T14:03:19.025Z,11.90
2018-03-12T14:05:46.566Z,12.00
2018-03-12T14:08:14.908Z,11.90
2018-03-12T14:10:42.491Z,11.90
2018-03-12T14:13:10.831Z,11.90
2018-03-12T14:15:38.364Z,11.80
2018-03-12T14:18:05.936Z,11.90
2018-03-12T14:20:33.473Z,11.80
2018-03-12T14:23:01.821Z,11.80
2018-03-12T14:25:29.366Z,11.80
2018-03-12T14:27:56.962Z,11.80
2018-03-12T14:30:25.260Z,11.70
2018-03-12T14:32:53.670Z,11.70
2018-03-12T14:35:21.203Z,11.60
2018-03-12T14:37:48.822Z,11.60
2018-03-12T14:40:17.124Z,11.60
2018-03-12T14:42:45.478Z,11.70
2018-03-12T14:45:13.782Z,11.70
2018-03-12T14:47:41.409Z,11.70
2018-03-12T14:50:08.957Z,11.70
2018-03-12T14:52:36.547Z,11.70
2018-03-12T14:55:04.853Z,11.70
2018-03-12T14:57:32.480Z,11.60
2018-03-12T15:00:00.909Z,11.60
2018-03-12T15:02:28.452Z,11.60
2018-03-12T15:04:56.036Z,11.60
2018-03-12T15:07:23.581Z,11.60
2018-03-12T15:09:51.173Z,11.60
2018-03-12T15:12:18.707Z,11.60
2018-03-12T15:14:46.292Z,11.60
2018-03-12T15:17:13.833Z,11.60
2018-03-12T15:19:41.417Z,11.60
2018-03-12T15:22:08.980Z,11.50
2018-03-12T15:24:36.576Z,11.50
2018-03-12T15:27:04.873Z,11.50
2018-03-12T15:29:32.457Z,11.50
2018-03-12T15:31:59.985Z,11.50
2018-03-12T15:34:27.567Z,11.50
2018-03-12T15:36:55.109Z,11.50
2018-03-12T15:39:22.693Z,11.50
2018-03-12T15:41:50.233Z,11.50
2018-03-12T15:44:17.852Z,11.50
2018-03-12T15:46:45.410Z,11.50
2018-03-12T15:49:13.007Z,11.50
2018-03-12T15:51:40.617Z,11.50
2018-03-12T15:54:08.207Z,11.50
2018-03-12T15:56:36.508Z,11.40
2018-03-12T15:59:04.096Z,11.40
2018-03-12T16:01:31.629Z,11.40
2018-03-12T16:04:00.029Z,11.40
2018-03-12T16:06:27.566Z,11.40
2018-03-12T16:08:55.219Z,11.40
2018-03-12T16:11:22.726Z,11.40
2018-03-12T16:13:50.317Z,11.40
2018-03-12T16:16:18.616Z,11.30
2018-03-12T16:18:46.965Z,11.30
2018-03-12T16:21:14.497Z,11.30
2018-03-12T16:23:42.076Z,11.30
2018-03-12T16:26:09.615Z,11.30
2018-03-12T16:28:37.205Z,11.30
2018-03-12T16:31:04.736Z,11.30
2018-03-12T16:33:32.385Z,11.20
2018-03-12T16:35:59.945Z,11.20
2018-03-12T16:38:27.532Z,11.20
2018-03-12T16:40:55.081Z,11.20
2018-03-12T16:43:22.664Z,11.20
2018-03-12T16:45:50.233Z,11.10
2018-03-12T16:48:17.817Z,11.10
2018-03-12T16:50:45.368Z,11.10
2018-03-12T16:53:13.717Z,11.00
2018-03-12T16:55:42.075Z,11.00
2018-03-12T16:58:09.716Z,11.00
2018-03-12T17:00:37.246Z,11.00
2018-03-12T17:03:05.616Z,10.90
2018-03-12T17:05:33.929Z,10.90
2018-03-12T17:08:01.468Z,10.90
2018-03-12T17:10:29.827Z,10.90
2018-03-12T17:12:58.177Z,10.90
2018-03-12T17:15:25.719Z,10.90
2018-03-12T17:17:53.327Z,10.90
2018-03-12T17:20:21.631Z,10.80
2018-03-12T17:22:49.543Z,10.80
2018-03-12T17:25:17.175Z,10.80
2018-03-12T17:27:44.785Z,10.80
2018-03-12T17:30:13.093Z,10.80
2018-03-12T17:32:41.460Z,10.70
2018-03-12T17:35:09.768Z,10.70
2018-03-12T17:37:37.306Z,10.70
2018-03-12T17:40:05.656Z,10.70
2018-03-12T17:42:33.192Z,10.60
2018-03-12T17:45:00.771Z,10.60
2018-03-12T17:47:28.312Z,10.60
2018-03-12T17:49:55.906Z,10.60
2018-03-12T17:52:24.213Z,10.60
2018-03-12T17:54:51.800Z,10.60
2018-03-12T17:57:19.358Z,10.60
2018-03-12T17:59:46.950Z,10.50
2018-03-12T18:02:14.491Z,10.50
2018-03-12T18:04:42.084Z,10.50
2018-03-12T18:07:09.624Z,10.50
2018-03-12T18:09:37.256Z,10.40
2018-03-12T18:12:04.794Z,10.40
2018-03-12T18:14:32.391Z,10.40
2018-03-12T18:16:59.932Z,10.40
2018-03-12T18:19:27.519Z,10.30
2018-03-12T18:21:55.059Z,10.30
2018-03-12T18:24:22.644Z,10.30
2018-03-12T18:26:50.280Z,10.30
2018-03-12T18:29:17.867Z,10.20
2018-03-12T18:31:45.404Z,10.20
2018-03-12T18:34:12.992Z,10.20
2018-03-12T18:36:40.561Z,10.20
2018-03-12T18:39:08.163Z,10.20
2018-03-12T18:41:35.715Z,10.10
2018-03-12T18:44:03.403Z,10.10
2018-03-12T18:46:30.937Z,10.10
2018-03-12T18:48:58.521Z,10.00
2018-03-12T18:51:26.061Z,10.00
2018-03-12T18:53:53.646Z,10.00
2018-03-12T18:56:21.185Z,10.00
2018-03-12T18:58:48.771Z,10.00
2018-03-12T19:01:16.299Z,9.90
2018-03-12T19:03:43.889Z,9.90
2018-03-12T19:06:11.437Z,9.90
2018-03-12T19:08:39.023Z,9.90
2018-03-12T19:11:06.551Z,9.90
2018-03-12T19:13:34.130Z,9.80
2018-03-12T19:16:01.673Z,9.80
2018-03-12T19:18:29.268Z,9.80
2018-03-12T19:20:56.806Z,9.70
2018-03-12T19:23:24.398Z,9.70
2018-03-12T19:25:51.941Z,9.70
2018-03-12T19:28:19.524Z,9.70
2018-03-12T19:30:47.052Z,9.70
2018-03-12T19:33:14.652Z,9.60
2018-03-12T19:35:42.969Z,9.60
2018-03-12T19:38:10.573Z,9.60
2018-03-12T19:40:38.112Z,9.60
2018-03-12T19:43:05.639Z,9.60
2018-03-12T19:45:33.224Z,9.50
2018-03-12T19:48:00.819Z,9.50
2018-03-12T19:50:29.127Z,9.50
2018-03-12T19:52:57.494Z,9.40
2018-03-12T19:55:25.793Z,9.40
2018-03-12T19:57:53.369Z,9.40
2018-03-12T20:00:20.900Z,9.40
2018-03-12T20:02:49.245Z,9.40
2018-03-12T20:05:16.780Z,9.30
2018-03-12T20:07:44.359Z,9.30
2018-03-12T20:10:23.104Z,9.30
2018-03-12T20:12:57.560Z,9.30
2018-03-12T20:15:30.160Z,9.30
2018-03-12T20:17:57.749Z,9.30
2018-03-12T20:20:25.279Z,9.20
2018-03-12T20:22:52.813Z,9.20
2018-03-12T20:25:20.400Z,9.20
2018-03-12T20:27:47.928Z,9.20
2018-03-12T20:30:15.511Z,9.10
2018-03-12T20:32:43.049Z,9.10
2018-03-12T20:35:10.632Z,9.10
2018-03-12T20:37:38.192Z,9.10
2018-03-12T20:40:05.773Z,9.10
2018-03-12T20:42:33.312Z,9.00
2018-03-12T20:45:00.887Z,9.00
2018-03-12T20:47:28.425Z,9.00
2018-03-12T20:49:56.004Z,9.00
2018-03-12T20:52:23.535Z,9.00
2018-03-12T20:54:51.112Z,9.00
2018-03-12T20:57:18.672Z,8.90
2018-03-12T20:59:46.262Z,8.90
2018-03-12T21:02:13.801Z,8.90
2018-03-12T21:04:41.382Z,8.90
2018-03-12T21:07:08.917Z,8.80
2018-03-12T21:09:36.549Z,8.80
2018-03-12T21:12:04.076Z,8.80
2018-03-12T21:14:34.713Z,8.80
2018-03-12T21:17:02.246Z,8.80
2018-03-12T21:19:29.832Z,8.80
2018-03-12T21:21:58.144Z,8.70
2018-03-12T21:24:25.673Z,8.70
2018-03-12T21:26:54.017Z,8.70
2018-03-12T21:29:21.586Z,8.70
2018-03-12T21:31:49.116Z,8.70
2018-03-12T21:34:16.679Z,8.60
2018-03-12T21:36:44.239Z,8.60
2018-03-12T21:39:11.899Z,8.60
2018-03-12T21:41:39.437Z,8.60
2018-03-12T21:44:07.008Z,8.60
2018-03-12T21:46:34.541Z,8.50
2018-03-12T21:49:02.884Z,8.50
2018-03-12T21:51:30.458Z,8.50
2018-03-12T21:53:58.036Z,8.50
2018-03-12T21:56:26.333Z,8.50
2018-03-12T21:58:53.916Z,8.50
2018-03-12T22:01:21.452Z,8.40
2018-03-12T22:03:49.021Z,8.40
2018-03-12T22:06:16.554Z,8.40
2018-03-12T22:08:44.897Z,8.40
2018-03-12T22:11:12.437Z,8.40
2018-03-12T22:13:40.007Z,8.40
2018-03-12T22:16:07.541Z,8.30
2018-03-12T22:18:35.095Z,8.30
2018-03-12T22:21:02.629Z,8.30
2018-03-12T22:23:30.967Z,8.30
2018-03-12T22:25:58.532Z,8.30
2018-03-12T22:28:26.112Z,8.30
2018-03-12T22:30:54.425Z,8.20
2018-03-12T22:33:21.979Z,8.20
2018-03-12T22:35:49.546Z,8.20
2018-03-12T22:38:17.121Z,8.20
2018-03-12T22:40:45.438Z,8.20
2018-03-12T22:43:13.005Z,8.20
2018-03-12T22:45:40.541Z,8.10
2018-03-12T22:48:08.115Z,8.10
2018-03-12T22:50:35.657Z,8.10
2018-03-12T22:53:03.184Z,8.10
2018-03-12T22:55:30.751Z,8.10
2018-03-12T22:57:58.324Z,8.10
2018-03-12T23:00:25.898Z,8.00
2018-03-12T23:02:53.434Z,8.00
2018-03-12T23:05:21.009Z,8.00
2018-03-12T23:07:48.540Z,8.00
2018-03-12T23:10:16.103Z,8.00
2018-03-12T23:12:43.633Z,8.00
2018-03-12T23:15:11.972Z,7.90
2018-03-12T23:17:39.534Z,7.90
2018-03-12T23:20:07.069Z,7.90
2018-03-12T23:22:34.637Z,7.90
2018-03-12T23:25:02.180Z,7.90
2018-03-12T23:27:29.754Z,7.90
2018-03-12T23:29:57.331Z,7.80
2018-03-12T23:32:24.900Z,7.80
2018-03-12T23:34:52.471Z,7.80
2018-03-12T23:37:20.063Z,7.80
2018-03-12T23:39:47.603Z,7.80
2018-03-12T23:42:15.912Z,7.80
2018-03-12T23:44:43.491Z,7.80
2018-03-12T23:47:11.037Z,7.80
2018-03-12T23:49:38.613Z,7.80
2018-03-12T23:52:06.183Z,7.80
2018-03-12T23:54:39.724Z,7.70
2018-03-12T23:57:08.078Z,7.70
2018-03-12T23:59:35.618Z,7.70
